Time;durP1;ratioP1;P1;durP2;ratioP2;P2;SDS_P1;SDS_P2;PMS_P1;PMS_P2;Temp;Humidity;BMP_temperature;BMP_pressure;BME280_temperature;BME280_humidity;BME280_pressure;Samples;Min_cycle;Max_cycle;Signal;HPM_P1;HPM_P2
2021/03/28 00:00:50;;;;;;;14.50;3.78;;;;;;;;;;5040675;28;20467;-76
2021/03/28 00:03:19;;;;;;;15.40;3.85;;;;;;;;;;5034324;28;20182;-75
2021/03/28 00:05:45;;;;;;;6.00;3.10;;;;;;;;;;5034434;28;20205;-75
2021/03/28 00:08:13;;;;;;;6.32;3.10;;;;;;;;;;5040281;28;20236;-76
2021/03/28 00:10:41;;;;;;;3.67;3.35;;;;;;;;;;5045923;28;20924;-75
2021/03/28 00:13:15;;;;;;;10.88;3.70;;;;;;;;;;5044733;28;20221;-76
2021/03/28 00:15:46;;;;;;;9.85;3.42;;;;;;;;;;5057567;22;20231;-73
2021/03/28 00:18:18;;;;;;;4.97;2.25;;;;;;;;;;5065102;28;20246;-72
2021/03/28 00:20:45;;;;;;;4.53;3.33;;;;;;;;;;5072981;28;20201;-73
2021/03/28 00:23:21;;;;;;;11.40;3.90;;;;;;;;;;5065775;28;20276;-73
2021/03/28 00:25:50;;;;;;;10.18;3.92;;;;;;;;;;5061846;28;20240;-74
2021/03/28 00:28:28;;;;;;;8.77;4.72;;;;;;;;;;5069072;28;20212;-73
2021/03/28 00:31:08;;;;;;;7.68;3.10;;;;;;;;;;5072819;28;20255;-73
2021/03/28 00:33:35;;;;;;;6.03;3.55;;;;;;;;;;5073233;28;20193;-73
2021/03/28 00:36:05;;;;;;;5.10;3.20;;;;;;;;;;5070863;28;20201;-73
2021/03/28 00:38:44;;;;;;;15.02;3.67;;;;;;;;;;5070540;28;20181;-72
2021/03/28 00:41:21;;;;;;;7.40;2.83;;;;;;;;;;5072268;28;20250;-73
2021/03/28 00:44:05;;;;;;;4.70;3.28;;;;;;;;;;5063152;28;20233;-72
2021/03/28 00:46:50;;;;;;;5.60;3.20;;;;;;;;;;5074463;28;20280;-73
2021/03/28 00:49:34;;;;;;;9.95;3.13;;;;;;;;;;5088691;28;20254;-73
2021/03/28 00:52:06;;;;;;;7.00;3.25;;;;;;;;;;5073250;28;20211;-73
2021/03/28 00:54:41;;;;;;;5.07;2.85;;;;;;;;;;5070933;28;20629;-74
2021/03/28 00:57:16;;;;;;;7.22;3.15;;;;;;;;;;5071350;28;20215;-74
2021/03/28 00:59:49;;;;;;;11.65;3.90;;;;;;;;;;5071256;28;20183;-73
2021/03/28 01:02:28;;;;;;;9.30;3.63;;;;;;;;;;5069230;28;20205;-73
2021/03/28 01:05:00;;;;;;;4.65;2.95;;;;;;;;;;5064930;28;20219;-74
2021/03/28 01:07:36;;;;;;;6.63;3.10;;;;;;;;;;5072025;28;20181;-74
2021/03/28 01:10:21;;;;;;;16.45;5.28;;;;;;;;;;5052702;28;20558;-74
2021/03/28 01:13:06;;;;;;;8.38;3.40;;;;;;;;;;5063608;28;20194;-72
2021/03/28 01:15:55;;;;;;;10.23;4.20;;;;;;;;;;5070840;28;20240;-74
2021/03/28 01:18:20;;;;;;;8.10;4.03;;;;;;;;;;5042293;28;20195;-74
2021/03/28 01:20:58;;;;;;;11.97;4.73;;;;;;;;;;5073788;28;20201;-74
2021/03/28 01:23:44;;;;;;;4.40;3.53;;;;;;;;;;5058296;28;20995;-73
2021/03/28 01:26:16;;;;;;;6.88;3.20;;;;;;;;;;5063621;28;20288;-73
2021/03/28 01:28:45;;;;;;;5.55;3.10;;;;;;;;;;5070833;28;20553;-73
2021/03/28 01:31:33;;;;;;;8.73;3.40;;;;;;;;;;5071763;28;20187;-73
2021/03/28 01:34:13;;;;;;;6.93;3.28;;;;;;;;;;5072798;28;20185;-73
2021/03/28 01:36:43;;;;;;;4.72;2.53;;;;;;;;;;5072515;28;20679;-73
2021/03/28 01:39:27;;;;;;;7.18;2.63;;;;;;;;;;5067238;28;20207;-73
2021/03/28 01:41:56;;;;;;;9.10;3.20;;;;;;;;;;5063769;28;20697;-73
2021/03/28 01:44:40;;;;;;;4.30;2.50;;;;;;;;;;5070016;28;20193;-73
2021/03/28 01:47:18;;;;;;;15.00;3.85;;;;;;;;;;5075351;28;20199;-73
2021/03/28 01:49:49;;;;;;;5.60;2.83;;;;;;;;;;5066461;28;20168;-73
2021/03/28 01:52:34;;;;;;;3.58;2.70;;;;;;;;;;5062858;28;20192;-73
2021/03/28 01:55:15;;;;;;;10.18;4.97;;;;;;;;;;5063895;28;20268;-73
2021/03/28 01:57:49;;;;;;;5.03;3.42;;;;;;;;;;5062805;28;20216;-73
2021/03/28 02:00:20;;;;;;;10.10;3.60;;;;;;;;;;5072358;28;20187;-74
2021/03/28 02:02:55;;;;;;;5.50;2.60;;;;;;;;;;5060345;28;20184;-73
2021/03/28 02:05:27;;;;;;;10.10;3.05;;;;;;;;;;5084718;28;20196;-72
2021/03/28 02:08:12;;;;;;;9.07;4.25;;;;;;;;;;5073364;28;20230;-72
2021/03/28 02:10:41;;;;;;;12.10;3.25;;;;;;;;;;5071200;28;20276;-74
2021/03/28 02:13:13;;;;;;;6.43;2.65;;;;;;;;;;5068310;28;20185;-73
2021/03/28 02:15:48;;;;;;;9.75;3.25;;;;;;;;;;5071147;28;20650;-73
2021/03/28 02:18:23;;;;;;;10.27;4.22;;;;;;;;;;5084766;28;20226;-73
2021/03/28 02:20:57;;;;;;;10.35;4.25;;;;;;;;;;5074333;28;20204;-73
2021/03/28 02:23:47;;;;;;;9.75;3.65;;;;;;;;;;5043178;28;20181;-73
2021/03/28 02:26:28;;;;;;;13.82;4.05;;;;;;;;;;5069478;28;20292;-74
2021/03/28 02:29:07;;;;;;;5.15;4.40;;;;;;;;;;5062097;28;20188;-72
2021/03/28 02:31:45;;;;;;;6.60;4.95;;;;;;;;;;5070591;28;20185;-74
2021/03/28 02:34:25;;;;;;;11.73;6.00;;;;;;;;;;5074528;28;20560;-73
2021/03/28 02:37:01;;;;;;;6.70;4.55;;;;;;;;;;5071691;28;20204;-73
2021/03/28 02:39:33;;;;;;;12.15;5.95;;;;;;;;;;5065491;28;20269;-73
2021/03/28 02:42:02;;;;;;;10.18;5.45;;;;;;;;;;5071433;28;20208;-73
2021/03/28 02:44:46;;;;;;;9.63;5.30;;;;;;;;;;5065993;28;20191;-72
2021/03/28 02:47:12;;;;;;;11.57;5.07;;;;;;;;;;5075232;28;20191;-73
2021/03/28 02:49:53;;;;;;;11.17;5.17;;;;;;;;;;5091914;28;20715;-73
2021/03/28 02:52:25;;;;;;;9.63;4.97;;;;;;;;;;5068111;28;20438;-73
2021/03/28 02:55:01;;;;;;;12.98;5.30;;;;;;;;;;5068953;28;20215;-73
2021/03/28 02:57:36;;;;;;;13.40;5.07;;;;;;;;;;5065460;28;20184;-73
2021/03/28 03:00:15;;;;;;;8.75;5.07;;;;;;;;;;5068799;28;20203;-73
2021/03/28 03:02:44;;;;;;;15.98;5.18;;;;;;;;;;5073502;28;20180;-73
2021/03/28 03:05:24;;;;;;;6.18;5.30;;;;;;;;;;5084685;28;20271;-73
2021/03/28 03:08:01;;;;;;;7.57;4.18;;;;;;;;;;5076686;28;20231;-73
2021/03/28 03:10:51;;;;;;;10.40;4.35;;;;;;;;;;5068075;28;20562;-74
2021/03/28 03:13:25;;;;;;;8.27;3.47;;;;;;;;;;5066268;28;20188;-73
2021/03/28 03:15:54;;;;;;;8.05;4.20;;;;;;;;;;5074512;28;20222;-74
2021/03/28 03:18:20;;;;;;;4.72;2.92;;;;;;;;;;5082081;28;20196;-74
2021/03/28 03:20:46;;;;;;;5.17;2.87;;;;;;;;;;5078790;28;20267;-73
2021/03/28 03:23:15;;;;;;;5.40;3.83;;;;;;;;;;5073278;28;20453;-74
2021/03/28 03:25:52;;;;;;;7.97;4.03;;;;;;;;;;5069797;28;20457;-74
2021/03/28 03:28:36;;;;;;;8.23;2.88;;;;;;;;;;5068005;28;20729;-73
2021/03/28 03:31:21;;;;;;;7.68;3.00;;;;;;;;;;5069360;28;20663;-74
2021/03/28 03:33:52;;;;;;;5.82;3.58;;;;;;;;;;5074448;28;20172;-73
2021/03/28 03:36:26;;;;;;;5.70;3.63;;;;;;;;;;5058497;28;20209;-73
2021/03/28 03:39:03;;;;;;;12.57;3.60;;;;;;;;;;5070580;28;20187;-73
2021/03/28 03:41:47;;;;;;;7.57;2.65;;;;;;;;;;5072127;28;20212;-74
2021/03/28 03:44:13;;;;;;;6.97;2.80;;;;;;;;;;5071217;28;20708;-73
2021/03/28 03:47:06;;;;;;;5.30;2.43;;;;;;;;;;5081171;28;20200;-73
2021/03/28 03:49:51;;;;;;;4.82;2.58;;;;;;;;;;5085994;28;20415;-72
2021/03/28 03:52:28;;;;;;;7.47;3.15;;;;;;;;;;5053947;28;20220;-73
2021/03/28 03:54:57;;;;;;;5.78;2.50;;;;;;;;;;5065230;28;20185;-72
2021/03/28 03:57:29;;;;;;;8.68;3.00;;;;;;;;;;5070116;28;20189;-73
2021/03/28 04:00:04;;;;;;;3.78;2.40;;;;;;;;;;5069838;28;20177;-73
2021/03/28 04:02:38;;;;;;;2.83;2.25;;;;;;;;;;5073599;28;20341;-72
2021/03/28 04:05:10;;;;;;;7.05;2.60;;;;;;;;;;5074026;28;20172;-73
2021/03/28 04:07:36;;;;;;;5.38;2.78;;;;;;;;;;5072548;28;20188;-71
2021/03/28 04:10:21;;;;;;;7.27;2.40;;;;;;;;;;5064047;28;20181;-72
2021/03/28 04:12:57;;;;;;;4.78;2.95;;;;;;;;;;5065492;28;20425;-71
2021/03/28 04:15:46;;;;;;;8.27;2.70;;;;;;;;;;5077120;28;20214;-73
2021/03/28 04:18:12;;;;;;;5.18;2.05;;;;;;;;;;5048710;28;20274;-73
2021/03/28 04:20:46;;;;;;;6.93;2.10;;;;;;;;;;5079021;28;20211;-73
2021/03/28 04:23:36;;;;;;;3.80;3.30;;;;;;;;;;5071801;28;20814;-74
2021/03/28 04:26:20;;;;;;;4.22;3.10;;;;;;;;;;5063703;28;20218;-73
2021/03/28 04:28:57;;;;;;;5.25;2.60;;;;;;;;;;5059896;28;20188;-74
2021/03/28 04:31:41;;;;;;;6.50;2.85;;;;;;;;;;5073717;28;20181;-71
2021/03/28 04:34:19;;;;;;;2.58;2.38;;;;;;;;;;5073818;28;20213;-73
2021/03/28 04:36:45;;;;;;;5.40;2.65;;;;;;;;;;5053697;28;20287;-71
2021/03/28 04:39:20;;;;;;;15.80;3.37;;;;;;;;;;5072281;28;20284;-74
2021/03/28 04:42:05;;;;;;;4.90;2.10;;;;;;;;;;5060407;28;20473;-74
2021/03/28 04:44:49;;;;;;;6.20;2.40;;;;;;;;;;5067281;28;20176;-73
2021/03/28 04:47:21;;;;;;;5.10;2.45;;;;;;;;;;5075741;28;20211;-73
2021/03/28 04:50:22;;;;;;;7.75;2.97;;;;;;;;;;5069051;28;20180;-73
2021/03/28 04:53:00;;;;;;;4.30;2.45;;;;;;;;;;5072258;28;20188;-73
2021/03/28 04:55:35;;;;;;;5.53;2.50;;;;;;;;;;5073109;28;20234;-73
2021/03/28 04:58:19;;;;;;;6.68;2.50;;;;;;;;;;5063393;28;20191;-73
2021/03/28 05:00:51;;;;;;;4.55;2.63;;;;;;;;;;5071965;28;20255;-72
2021/03/28 05:03:30;;;;;;;6.50;2.80;;;;;;;;;;5072536;28;20177;-73
2021/03/28 05:06:02;;;;;;;5.63;2.58;;;;;;;;;;5078212;28;20679;-73
2021/03/28 05:08:51;;;;;;;6.10;3.45;;;;;;;;;;5069532;28;20184;-72
2021/03/28 05:11:17;;;;;;;7.38;2.42;;;;;;;;;;5026936;28;20775;-73
2021/03/28 05:13:50;;;;;;;5.23;2.73;;;;;;;;;;5067388;28;20263;-73
2021/03/28 05:16:31;;;;;;;5.88;3.00;;;;;;;;;;5068789;28;20462;-73
2021/03/28 05:19:09;;;;;;;5.03;2.95;;;;;;;;;;5076609;28;20184;-73
2021/03/28 05:21:38;;;;;;;9.45;2.20;;;;;;;;;;5070519;28;20260;-73
2021/03/28 05:24:22;;;;;;;6.50;4.30;;;;;;;;;;5069970;28;20169;-72
2021/03/28 05:26:54;;;;;;;6.68;2.65;;;;;;;;;;5062357;28;20287;-73
2021/03/28 05:29:21;;;;;;;4.53;2.90;;;;;;;;;;5065533;28;20176;-73
2021/03/28 05:32:06;;;;;;;4.70;2.45;;;;;;;;;;5071436;28;20268;-73
2021/03/28 05:34:46;;;;;;;4.45;2.40;;;;;;;;;;5077073;28;20191;-73
2021/03/28 05:37:38;;;;;;;7.47;2.67;;;;;;;;;;5072495;28;20210;-73
2021/03/28 05:40:23;;;;;;;5.55;3.55;;;;;;;;;;5072142;28;20212;-73
2021/03/28 05:43:02;;;;;;;7.53;3.05;;;;;;;;;;5066893;28;20242;-73
2021/03/28 05:45:41;;;;;;;4.75;2.63;;;;;;;;;;5069648;28;20287;-73
2021/03/28 05:48:25;;;;;;;10.35;3.10;;;;;;;;;;5080187;28;20203;-73
2021/03/28 05:51:00;;;;;;;6.43;2.63;;;;;;;;;;5075673;28;20183;-73
2021/03/28 05:53:43;;;;;;;10.77;2.90;;;;;;;;;;5068336;28;20188;-73
2021/03/28 05:56:12;;;;;;;5.90;2.83;;;;;;;;;;5068710;28;20200;-72
2021/03/28 05:58:38;;;;;;;6.38;2.78;;;;;;;;;;5065582;28;20189;-72
2021/03/28 06:01:04;;;;;;;7.40;3.00;;;;;;;;;;5070890;28;20204;-73
2021/03/28 06:03:49;;;;;;;4.20;2.97;;;;;;;;;;5071088;28;20441;-73
2021/03/28 06:06:32;;;;;;;4.40;2.85;;;;;;;;;;5077211;28;20953;-73
2021/03/28 06:09:01;;;;;;;5.07;3.05;;;;;;;;;;5065138;28;20181;-73
2021/03/28 06:11:38;;;;;;;8.80;3.55;;;;;;;;;;5070716;28;20192;-73
2021/03/28 06:14:22;;;;;;;5.13;2.25;;;;;;;;;;5069875;28;20198;-73
2021/03/28 06:17:07;;;;;;;6.07;2.58;;;;;;;;;;5088221;22;20235;-72
2021/03/28 06:19:51;;;;;;;5.55;2.95;;;;;;;;;;5080878;28;20314;-72
2021/03/28 06:22:17;;;;;;;7.75;2.80;;;;;;;;;;5069280;28;20232;-72
2021/03/28 06:25:04;;;;;;;3.63;3.20;;;;;;;;;;5063583;28;20171;-72
2021/03/28 06:27:45;;;;;;;5.95;2.70;;;;;;;;;;5066215;28;20927;-72
2021/03/28 06:30:28;;;;;;;8.82;3.60;;;;;;;;;;5069638;28;20185;-72
2021/03/28 06:33:03;;;;;;;3.15;2.70;;;;;;;;;;5071096;28;20184;-72
2021/03/28 06:36:00;;;;;;;4.30;2.15;;;;;;;;;;5073745;28;20180;-72
2021/03/28 06:38:56;;;;;;;9.20;3.20;;;;;;;;;;5057670;28;20623;-72
2021/03/28 06:41:33;;;;;;;6.82;2.30;;;;;;;;;;5016405;28;20210;-71
2021/03/28 06:44:02;;;;;;;6.03;2.60;;;;;;;;;;5066482;28;20179;-71
2021/03/28 06:46:38;;;;;;;6.43;2.90;;;;;;;;;;5072489;28;20299;-72
2021/03/28 06:49:39;;;;;;;7.10;2.72;;;;;;;;;;5079023;28;20176;-71
2021/03/28 06:52:24;;;;;;;5.47;2.35;;;;;;;;;;4989475;28;20195;-71
2021/03/28 06:55:05;;;;;;;7.00;3.35;;;;;;;;;;5065537;28;20235;-71
2021/03/28 06:57:54;;;;;;;9.27;3.40;;;;;;;;;;5071393;28;20197;-72
2021/03/28 07:00:35;;;;;;;4.20;2.30;;;;;;;;;;5064026;28;20183;-71
2021/03/28 07:03:20;;;;;;;6.93;2.72;;;;;;;;;;5070715;28;20643;-72
2021/03/28 07:05:58;;;;;;;5.95;3.15;;;;;;;;;;5070742;28;20203;-71
2021/03/28 07:08:29;;;;;;;6.15;3.20;;;;;;;;;;5053102;28;20169;-71
2021/03/28 07:11:05;;;;;;;4.60;3.35;;;;;;;;;;5071235;28;20622;-71
2021/03/28 07:13:31;;;;;;;8.02;3.17;;;;;;;;;;5070661;28;20181;-71
2021/03/28 07:15:59;;;;;;;6.30;2.93;;;;;;;;;;5071072;28;20223;-71
2021/03/28 07:18:35;;;;;;;10.25;3.08;;;;;;;;;;5080357;28;20435;-71
2021/03/28 07:21:19;;;;;;;9.88;3.10;;;;;;;;;;5085997;28;20196;-71
2021/03/28 07:24:04;;;;;;;4.15;2.78;;;;;;;;;;5063489;28;20204;-71
2021/03/28 07:26:38;;;;;;;6.22;2.83;;;;;;;;;;5070965;28;20216;-71
2021/03/28 07:29:07;;;;;;;8.82;2.72;;;;;;;;;;5071888;28;20181;-71
2021/03/28 07:31:42;;;;;;;10.45;3.75;;;;;;;;;;5088659;28;20662;-71
2021/03/28 07:34:28;;;;;;;12.82;4.35;;;;;;;;;;5056156;28;20180;-72
2021/03/28 07:37:19;;;;;;;4.45;3.03;;;;;;;;;;5070511;28;20208;-72
2021/03/28 07:40:03;;;;;;;5.50;2.42;;;;;;;;;;5067920;28;20187;-72
2021/03/28 07:42:41;;;;;;;6.97;2.38;;;;;;;;;;5070450;28;20582;-71
2021/03/28 07:45:07;;;;;;;6.40;3.00;;;;;;;;;;5070176;28;20180;-71
2021/03/28 07:47:39;;;;;;;4.40;2.47;;;;;;;;;;5071608;28;20197;-71
2021/03/28 07:50:22;;;;;;;6.40;2.53;;;;;;;;;;5072425;28;20447;-71
2021/03/28 07:53:07;;;;;;;4.03;2.75;;;;;;;;;;5065692;28;20201;-70
2021/03/28 07:55:34;;;;;;;6.93;3.03;;;;;;;;;;5073074;28;20220;-70
2021/03/28 07:58:00;;;;;;;7.57;2.45;;;;;;;;;;5066614;28;20188;-71
2021/03/28 08:00:34;;;;;;;5.77;2.93;;;;;;;;;;5063308;28;20185;-70
2021/03/28 08:03:18;;;;;;;7.45;2.80;;;;;;;;;;5066658;28;20857;-71
2021/03/28 08:06:03;;;;;;;4.45;2.35;;;;;;;;;;5066200;28;20213;-70
2021/03/28 08:08:34;;;;;;;14.23;2.90;;;;;;;;;;5071324;28;20198;-70
2021/03/28 08:11:14;;;;;;;6.07;3.33;;;;;;;;;;5074301;28;20554;-70
2021/03/28 08:13:47;;;;;;;4.95;3.28;;;;;;;;;;5072838;28;20188;-71
2021/03/28 08:16:16;;;;;;;3.92;2.15;;;;;;;;;;5073891;28;20218;-72
2021/03/28 08:19:01;;;;;;;5.53;2.50;;;;;;;;;;5071881;28;20209;-71
2021/03/28 08:21:40;;;;;;;3.90;2.08;;;;;;;;;;5072590;28;20612;-71
2021/03/28 08:24:12;;;;;;;6.82;3.08;;;;;;;;;;5073923;28;20253;-70
2021/03/28 08:26:41;;;;;;;4.35;2.17;;;;;;;;;;5072974;28;20208;-71
2021/03/28 08:29:26;;;;;;;4.53;1.80;;;;;;;;;;5072540;28;20189;-71
2021/03/28 08:32:11;;;;;;;4.03;2.47;;;;;;;;;;5070024;28;20550;-71
2021/03/28 08:34:45;;;;;;;9.07;2.95;;;;;;;;;;5081448;28;20184;-72
2021/03/28 08:37:14;;;;;;;8.45;2.80;;;;;;;;;;5070570;28;20200;-71
2021/03/28 08:39:59;;;;;;;8.00;3.53;;;;;;;;;;5073455;28;20655;-72
2021/03/28 08:42:44;;;;;;;5.88;2.75;;;;;;;;;;5072446;28;20227;-71
2021/03/28 08:45:25;;;;;;;3.80;2.03;;;;;;;;;;5066268;28;20262;-71
2021/03/28 08:48:09;;;;;;;7.57;2.80;;;;;;;;;;5071577;28;20305;-72
2021/03/28 08:50:38;;;;;;;6.82;3.08;;;;;;;;;;5072495;28;20303;-72
2021/03/28 08:53:23;;;;;;;2.83;2.13;;;;;;;;;;5072268;28;20551;-72
2021/03/28 08:55:51;;;;;;;9.18;2.42;;;;;;;;;;5065862;28;20572;-72
2021/03/28 08:58:22;;;;;;;5.85;3.42;;;;;;;;;;5071594;28;20181;-72
2021/03/28 09:00:51;;;;;;;4.82;2.80;;;;;;;;;;5070402;28;20199;-72
2021/03/28 09:03:19;;;;;;;3.13;2.78;;;;;;;;;;5068739;28;20171;-72
2021/03/28 09:05:50;;;;;;;5.93;2.95;;;;;;;;;;5080617;28;20196;-71
2021/03/28 09:08:21;;;;;;;3.35;2.72;;;;;;;;;;5055031;28;20718;-73
2021/03/28 09:10:53;;;;;;;4.60;3.00;;;;;;;;;;5053920;28;20177;-72
2021/03/28 09:13:37;;;;;;;5.10;2.38;;;;;;;;;;5071159;28;20264;-71
2021/03/28 09:16:10;;;;;;;11.00;2.05;;;;;;;;;;5072513;28;20208;-72
2021/03/28 09:18:48;;;;;;;4.53;2.80;;;;;;;;;;5071736;28;20189;-72
2021/03/28 09:21:25;;;;;;;6.03;2.55;;;;;;;;;;5068743;28;20624;-72
2021/03/28 09:24:10;;;;;;;8.90;2.00;;;;;;;;;;5061211;28;20636;-72
2021/03/28 09:26:40;;;;;;;4.90;2.15;;;;;;;;;;5072075;28;20558;-73
2021/03/28 09:29:33;;;;;;;5.88;1.60;;;;;;;;;;5070533;28;20177;-71
2021/03/28 09:32:26;;;;;;;6.45;2.65;;;;;;;;;;5073923;28;20169;-72
2021/03/28 09:35:05;;;;;;;7.53;2.95;;;;;;;;;;5065744;28;20176;-72
2021/03/28 09:37:46;;;;;;;4.65;2.10;;;;;;;;;;5071512;28;20200;-72
2021/03/28 09:40:24;;;;;;;4.35;2.30;;;;;;;;;;5072320;28;20181;-72
2021/03/28 09:42:52;;;;;;;4.65;1.90;;;;;;;;;;5071591;28;20180;-73
2021/03/28 09:45:30;;;;;;;5.93;2.10;;;;;;;;;;5071558;28;20577;-72
2021/03/28 09:47:59;;;;;;;6.53;2.53;;;;;;;;;;5058627;28;20631;-72
2021/03/28 09:50:32;;;;;;;4.35;2.35;;;;;;;;;;5071413;28;20185;-72
2021/03/28 09:53:17;;;;;;;8.40;2.70;;;;;;;;;;5070439;28;20173;-71
2021/03/28 09:55:58;;;;;;;13.52;2.58;;;;;;;;;;5067384;28;20240;-71
2021/03/28 09:58:34;;;;;;;4.28;2.40;;;;;;;;;;5070877;28;20179;-71
2021/03/28 10:01:03;;;;;;;5.35;2.15;;;;;;;;;;5063616;28;20234;-71
2021/03/28 10:03:36;;;;;;;4.53;2.30;;;;;;;;;;5071422;28;20184;-71
2021/03/28 10:06:12;;;;;;;7.18;2.45;;;;;;;;;;5071686;28;20274;-71
2021/03/28 10:08:43;;;;;;;5.88;1.30;;;;;;;;;;5071720;28;20188;-72
2021/03/28 10:11:15;;;;;;;5.22;2.85;;;;;;;;;;5070211;28;20260;-72
2021/03/28 10:13:47;;;;;;;3.28;1.70;;;;;;;;;;5062783;28;20180;-72
2021/03/28 10:16:14;;;;;;;5.18;2.00;;;;;;;;;;5070885;28;20221;-72
2021/03/28 10:18:40;;;;;;;3.08;1.60;;;;;;;;;;5071203;28;20207;-73
2021/03/28 10:21:18;;;;;;;5.30;2.20;;;;;;;;;;5069633;28;20670;-73
2021/03/28 10:24:07;;;;;;;6.88;1.70;;;;;;;;;;5068745;28;21011;-72
2021/03/28 10:26:39;;;;;;;3.35;1.70;;;;;;;;;;5062231;28;20600;-72
2021/03/28 10:29:05;;;;;;;2.75;1.50;;;;;;;;;;5076085;28;20185;-71
2021/03/28 10:31:37;;;;;;;7.77;2.07;;;;;;;;;;5069436;28;20192;-71
2021/03/28 10:34:16;;;;;;;4.07;2.10;;;;;;;;;;5071949;28;20915;-71
2021/03/28 10:37:01;;;;;;;7.72;1.63;;;;;;;;;;5070167;28;20213;-72
2021/03/28 10:39:45;;;;;;;3.55;1.45;;;;;;;;;;5070264;28;20181;-71
2021/03/28 10:42:30;;;;;;;4.82;2.40;;;;;;;;;;5063174;28;20210;-71
2021/03/28 10:45:04;;;;;;;7.05;2.67;;;;;;;;;;5068594;28;20213;-71
2021/03/28 10:47:48;;;;;;;4.30;1.37;;;;;;;;;;5071523;28;20201;-72
2021/03/28 10:50:33;;;;;;;5.83;1.90;;;;;;;;;;5051875;28;20400;-71
2021/03/28 10:53:08;;;;;;;11.88;2.88;;;;;;;;;;5052207;28;20410;-71
2021/03/28 10:55:54;;;;;;;3.57;2.10;;;;;;;;;;5067738;28;20183;-70
2021/03/28 10:58:23;;;;;;;6.40;1.60;;;;;;;;;;5055648;28;20400;-71
2021/03/28 11:01:19;;;;;;;7.75;2.22;;;;;;;;;;5077079;28;20535;-71
2021/03/28 11:03:51;;;;;;;7.95;2.30;;;;;;;;;;5063083;28;20557;-72
2021/03/28 11:06:36;;;;;;;11.30;2.25;;;;;;;;;;5071297;28;20261;-71
2021/03/28 11:09:21;;;;;;;5.43;1.73;;;;;;;;;;5067245;28;20217;-71
2021/03/28 11:11:52;;;;;;;2.37;2.17;;;;;;;;;;5064870;28;21514;-72
2021/03/28 11:14:24;;;;;;;4.30;2.07;;;;;;;;;;5062589;28;20408;-71
2021/03/28 11:16:59;;;;;;;4.63;1.83;;;;;;;;;;5063253;28;20459;-72
2021/03/28 11:19:43;;;;;;;6.70;2.03;;;;;;;;;;5069672;28;20900;-73
2021/03/28 11:22:09;;;;;;;4.07;1.80;;;;;;;;;;5071429;28;20588;-72
2021/03/28 11:24:35;;;;;;;10.53;2.13;;;;;;;;;;5074106;28;20538;-72
2021/03/28 11:27:10;;;;;;;6.40;1.77;;;;;;;;;;5074304;28;20452;-72
2021/03/28 11:29:45;;;;;;;2.80;1.60;;;;;;;;;;5076839;28;20426;-72
2021/03/28 11:32:22;;;;;;;5.80;3.23;;;;;;;;;;5078382;28;20430;-72
2021/03/28 11:35:07;;;;;;;3.87;2.80;;;;;;;;;;5062791;28;20427;-72
2021/03/28 11:37:33;;;;;;;4.87;2.03;;;;;;;;;;5073287;28;20431;-72
2021/03/28 11:40:12;;;;;;;8.27;2.27;;;;;;;;;;5074612;28;20891;-72
2021/03/28 11:42:39;;;;;;;2.80;1.60;;;;;;;;;;5071477;28;20547;-71
2021/03/28 11:45:28;;;;;;;3.17;2.00;;;;;;;;;;5071993;28;20440;-71
2021/03/28 11:47:55;;;;;;;6.53;2.43;;;;;;;;;;5057171;28;20807;-71
2021/03/28 11:50:24;;;;;;;6.00;1.83;;;;;;;;;;5074337;28;20421;-71
2021/03/28 11:53:08;;;;;;;6.97;2.00;;;;;;;;;;5068311;28;20830;-71
2021/03/28 11:55:40;;;;;;;4.70;1.50;;;;;;;;;;5074533;28;20409;-71
2021/03/28 11:58:22;;;;;;;11.00;3.10;;;;;;;;;;5073308;28;20407;-71
2021/03/28 12:00:58;;;;;;;6.33;1.93;;;;;;;;;;5067773;28;20447;-71
2021/03/28 12:03:29;;;;;;;2.43;1.30;;;;;;;;;;5073245;28;20833;-71
2021/03/28 12:06:14;;;;;;;4.37;1.70;;;;;;;;;;5073723;28;20504;-71
2021/03/28 12:08:46;;;;;;;5.47;2.10;;;;;;;;;;5073729;28;20430;-72
2021/03/28 12:11:31;;;;;;;4.30;2.03;;;;;;;;;;5073158;28;20411;-73
2021/03/28 12:14:00;;;;;;;6.70;1.90;;;;;;;;;;5071577;28;20431;-72
2021/03/28 12:16:46;;;;;;;4.40;1.73;;;;;;;;;;5073495;28;20468;-72
2021/03/28 12:19:18;;;;;;;3.10;1.83;;;;;;;;;;5074040;28;20935;-72
2021/03/28 12:21:50;;;;;;;3.47;1.93;;;;;;;;;;5071865;28;20936;-72
2021/03/28 12:24:21;;;;;;;4.60;2.00;;;;;;;;;;5067330;28;20875;-72
2021/03/28 12:26:49;;;;;;;8.00;2.30;;;;;;;;;;5072165;28;20476;-72
2021/03/28 12:29:17;;;;;;;4.07;1.70;;;;;;;;;;5071643;28;20427;-72
2021/03/28 12:31:44;;;;;;;4.40;1.70;;;;;;;;;;5070905;28;20539;-72
2021/03/28 12:34:30;;;;;;;2.80;2.10;;;;;;;;;;5072970;28;20515;-72
2021/03/28 12:37:02;;;;;;;8.93;2.20;;;;;;;;;;5067567;28;20455;-72
2021/03/28 12:39:33;;;;;;;3.73;1.73;;;;;;;;;;5071366;28;20440;-72
2021/03/28 12:42:02;;;;;;;3.13;1.83;;;;;;;;;;5066877;28;20470;-72
2021/03/28 12:44:36;;;;;;;4.20;1.70;;;;;;;;;;5071928;28;20551;-72
2021/03/28 12:47:05;;;;;;;4.07;1.60;;;;;;;;;;5074464;28;20451;-73
2021/03/28 12:49:33;;;;;;;3.93;1.77;;;;;;;;;;5072837;28;20428;-73
2021/03/28 12:52:16;;;;;;;4.93;1.40;;;;;;;;;;5072105;28;20430;-73
2021/03/28 12:54:51;;;;;;;5.87;2.10;;;;;;;;;;5073181;28;20419;-73
2021/03/28 12:57:32;;;;;;;7.00;1.73;;;;;;;;;;5072350;28;20461;-72
2021/03/28 12:59:59;;;;;;;5.50;1.80;;;;;;;;;;5073561;28;20427;-72
2021/03/28 13:02:31;;;;;;;3.13;1.83;;;;;;;;;;5071692;28;20468;-72
2021/03/28 13:05:02;;;;;;;4.10;2.20;;;;;;;;;;5072064;28;20431;-72
2021/03/28 13:07:37;;;;;;;5.00;1.83;;;;;;;;;;5072499;28;20554;-73
2021/03/28 13:10:03;;;;;;;4.13;1.73;;;;;;;;;;5067455;28;20407;-72
2021/03/28 13:12:30;;;;;;;4.13;1.90;;;;;;;;;;5071856;28;20443;-72
2021/03/28 13:15:15;;;;;;;2.73;1.57;;;;;;;;;;5072775;28;20580;-72
2021/03/28 13:17:41;;;;;;;7.00;2.50;;;;;;;;;;5068833;28;20474;-72
2021/03/28 13:20:28;;;;;;;3.97;1.80;;;;;;;;;;5072502;28;20427;-72
2021/03/28 13:23:06;;;;;;;2.80;1.80;;;;;;;;;;5070774;28;20994;-72
2021/03/28 13:25:32;;;;;;;5.73;3.23;;;;;;;;;;5071789;28;20427;-72
2021/03/28 13:28:01;;;;;;;3.17;1.90;;;;;;;;;;5072677;28;21149;-72
2021/03/28 13:30:27;;;;;;;3.97;1.57;;;;;;;;;;5076549;28;20420;-71
2021/03/28 13:32:53;;;;;;;7.10;2.53;;;;;;;;;;5092710;28;20862;-73
2021/03/28 13:35:34;;;;;;;5.67;2.13;;;;;;;;;;5079646;28;20825;-73
2021/03/28 13:38:14;;;;;;;4.33;1.70;;;;;;;;;;5065593;28;20423;-73
2021/03/28 13:40:48;;;;;;;3.10;1.60;;;;;;;;;;5060844;28;20412;-73
2021/03/28 13:43:24;;;;;;;4.93;2.03;;;;;;;;;;5065006;28;20399;-73
2021/03/28 13:45:51;;;;;;;3.43;1.73;;;;;;;;;;5063806;28;20454;-73
2021/03/28 13:48:17;;;;;;;6.60;2.97;;;;;;;;;;5067802;28;20825;-73
2021/03/28 13:50:53;;;;;;;3.30;2.03;;;;;;;;;;5072436;28;20389;-73
2021/03/28 13:53:22;;;;;;;7.70;2.00;;;;;;;;;;5071313;28;20419;-73
2021/03/28 13:55:48;;;;;;;4.70;1.73;;;;;;;;;;5060786;28;20411;-73
2021/03/28 13:58:24;;;;;;;5.03;2.07;;;;;;;;;;5055511;28;20409;-73
2021/03/28 14:00:55;;;;;;;4.63;1.90;;;;;;;;;;5066985;28;20484;-73
2021/03/28 14:03:33;;;;;;;4.90;1.60;;;;;;;;;;5071225;28;21003;-73
2021/03/28 14:06:02;;;;;;;3.70;1.80;;;;;;;;;;5070861;28;20421;-73
2021/03/28 14:08:28;;;;;;;4.03;1.50;;;;;;;;;;5054952;28;20496;-73
2021/03/28 14:10:59;;;;;;;3.03;1.93;;;;;;;;;;5070051;28;20431;-73
2021/03/28 14:13:32;;;;;;;3.20;1.80;;;;;;;;;;5069302;28;20438;-73
2021/03/28 14:16:00;;;;;;;3.30;2.00;;;;;;;;;;5068401;28;20445;-73
2021/03/28 14:18:36;;;;;;;7.33;1.93;;;;;;;;;;5071737;28;20413;-73
2021/03/28 14:21:10;;;;;;;13.13;2.20;;;;;;;;;;5072963;28;20421;-73
2021/03/28 14:23:43;;;;;;;2.50;2.03;;;;;;;;;;5070602;28;20410;-73
2021/03/28 14:26:09;;;;;;;5.13;1.57;;;;;;;;;;5071815;28;20476;-73
2021/03/28 14:28:41;;;;;;;6.13;1.80;;;;;;;;;;5071338;28;20390;-73
2021/03/28 14:31:09;;;;;;;3.53;1.80;;;;;;;;;;5070839;28;20442;-73
2021/03/28 14:33:41;;;;;;;2.13;1.53;;;;;;;;;;5070650;28;20469;-73
2021/03/28 14:36:21;;;;;;;1.63;1.33;;;;;;;;;;5064239;28;20412;-73
2021/03/28 14:39:02;;;;;;;5.87;2.20;;;;;;;;;;5071190;28;20404;-73
2021/03/28 14:41:43;;;;;;;3.90;1.43;;;;;;;;;;5071177;28;20470;-73
2021/03/28 14:44:28;;;;;;;2.80;2.20;;;;;;;;;;5070850;28;20453;-73
2021/03/28 14:46:57;;;;;;;4.20;1.70;;;;;;;;;;5070937;28;20496;-73
2021/03/28 14:49:31;;;;;;;4.00;1.70;;;;;;;;;;5070268;28;20431;-73
2021/03/28 14:51:57;;;;;;;2.97;1.50;;;;;;;;;;5062781;28;20501;-73
2021/03/28 14:54:47;;;;;;;3.07;1.40;;;;;;;;;;5071525;28;20504;-73
2021/03/28 14:57:16;;;;;;;2.57;1.63;;;;;;;;;;5067988;28;20501;-73
2021/03/28 14:59:42;;;;;;;3.13;1.80;;;;;;;;;;5071529;28;20434;-73
2021/03/28 15:02:28;;;;;;;1.83;1.63;;;;;;;;;;5079739;28;20432;-73
2021/03/28 15:05:12;;;;;;;4.60;2.07;;;;;;;;;;5075064;28;20429;-73
2021/03/28 15:07:39;;;;;;;2.67;2.30;;;;;;;;;;5074997;28;20767;-73
2021/03/28 15:10:09;;;;;;;4.33;2.00;;;;;;;;;;5054220;28;20417;-73
2021/03/28 15:12:46;;;;;;;6.13;2.60;;;;;;;;;;5063734;28;20397;-73
2021/03/28 15:15:16;;;;;;;5.17;2.40;;;;;;;;;;5072945;28;20436;-73
2021/03/28 15:17:44;;;;;;;2.13;1.80;;;;;;;;;;5069274;28;20436;-73
2021/03/28 15:20:29;;;;;;;4.10;2.20;;;;;;;;;;5072454;28;20436;-72
2021/03/28 15:22:59;;;;;;;5.87;1.90;;;;;;;;;;5074711;28;20469;-73
2021/03/28 15:25:26;;;;;;;3.70;2.03;;;;;;;;;;5074680;28;20400;-71
2021/03/28 15:27:53;;;;;;;6.93;1.60;;;;;;;;;;5074282;28;20885;-72
2021/03/28 15:30:22;;;;;;;3.60;2.10;;;;;;;;;;5074697;28;20403;-72
2021/03/28 15:32:51;;;;;;;7.43;1.80;;;;;;;;;;5078606;28;20428;-72